sensor_id;sensor_type;location;lat;lon;timestamp;temperature;humidity
7331;DHT22;3706;49.198;7.064;2022-07-23T00:02:29;20.50;99.90
7331;DHT22;3706;49.198;7.064;2022-07-23T00:04:56;20.60;99.90
7331;DHT22;3706;49.198;7.064;2022-07-23T00:07:25;20.50;99.90
7331;DHT22;3706;49.198;7.064;2022-07-23T00:09:52;20.50;99.90
7331;DHT22;3706;49.198;7.064;2022-07-23T00:12:19;20.50;99.90
7331;DHT22;3706;49.198;7.064;2022-07-23T00:14:46;20.40;99.90
7331;DHT22;3706;49.198;7.064;2022-07-23T00:17:15;20.20;99.90
7331;DHT22;3706;49.198;7.064;2022-07-23T00:19:42;19.90;99.90
7331;DHT22;3706;49.198;7.064;2022-07-23T00:22:09;19.80;99.90
7331;DHT22;3706;49.198;7.064;2022-07-23T00:24:36;19.70;99.90
7331;DHT22;3706;49.198;7.064;2022-07-23T00:27:03;19.70;99.90
7331;DHT22;3706;49.198;7.064;2022-07-23T00:29:30;19.60;99.90
7331;DHT22;3706;49.198;7.064;2022-07-23T00:31:57;19.50;99.90
7331;DHT22;3706;49.198;7.064;2022-07-23T00:34:26;19.60;99.90
7331;DHT22;3706;49.198;7.064;2022-07-23T00:36:53;19.70;99.90
7331;DHT22;3706;49.198;7.064;2022-07-23T00:39:20;19.70;99.90
7331;DHT22;3706;49.198;7.064;2022-07-23T00:41:48;19.90;99.90
7331;DHT22;3706;49.198;7.064;2022-07-23T00:44:19;20.00;99.90
7331;DHT22;3706;49.198;7.064;2022-07-23T00:46:48;20.00;99.90
7331;DHT22;3706;49.198;7.064;2022-07-23T00:49:15;20.00;99.90
7331;DHT22;3706;49.198;7.064;2022-07-23T00:51:44;20.00;99.90
7331;DHT22;3706;49.198;7.064;2022-07-23T00:54:11;20.00;99.90
7331;DHT22;3706;49.198;7.064;2022-07-23T00:56:38;20.00;99.90
7331;DHT22;3706;49.198;7.064;2022-07-23T00:59:06;20.00;99.90
7331;DHT22;3706;49.198;7.064;2022-07-23T01:01:33;20.00;99.90
7331;DHT22;3706;49.198;7.064;2022-07-23T01:14:33;20.00;99.90
7331;DHT22;3706;49.198;7.064;2022-07-23T01:43:45;19.80;99.90
7331;DHT22;3706;49.198;7.064;2022-07-23T01:45:40;19.70;99.90
7331;DHT22;3706;49.198;7.064;2022-07-23T01:49:07;19.60;99.90
7331;DHT22;3706;49.198;7.064;2022-07-23T01:52:32;19.60;99.90
7331;DHT22;3706;49.198;7.064;2022-07-23T01:55:11;19.70;99.90
7331;DHT22;3706;49.198;7.064;2022-07-23T01:57:50;19.80;99.90
7331;DHT22;3706;49.198;7.064;2022-07-23T02:01:02;19.90;99.90
7331;DHT22;3706;49.198;7.064;2022-07-23T02:04:08;19.90;99.90
7331;DHT22;3706;49.198;7.064;2022-07-23T02:06:48;19.80;99.90
7331;DHT22;3706;49.198;7.064;2022-07-23T02:09:39;19.80;99.90
7331;DHT22;3706;49.198;7.064;2022-07-23T02:12:10;19.70;99.90
7331;DHT22;3706;49.198;7.064;2022-07-23T02:14:40;19.70;99.90
7331;DHT22;3706;49.198;7.064;2022-07-23T02:17:11;19.80;99.90
7331;DHT22;3706;49.198;7.064;2022-07-23T02:19:49;19.80;99.90
7331;DHT22;3706;49.198;7.064;2022-07-23T02:22:41;19.80;99.90
7331;DHT22;3706;49.198;7.064;2022-07-23T02:25:32;19.70;99.90
7331;DHT22;3706;49.198;7.064;2022-07-23T02:28:23;19.50;99.90
7331;DHT22;3706;49.198;7.064;2022-07-23T02:31:09;19.40;99.90
7331;DHT22;3706;49.198;7.064;2022-07-23T02:33:37;19.40;99.90
7331;DHT22;3706;49.198;7.064;2022-07-23T02:36:09;19.40;99.90
7331;DHT22;3706;49.198;7.064;2022-07-23T02:39:03;19.30;99.90
7331;DHT22;3706;49.198;7.064;2022-07-23T02:41:47;19.30;99.90
7331;DHT22;3706;49.198;7.064;2022-07-23T02:44:56;19.20;99.90
7331;DHT22;3706;49.198;7.064;2022-07-23T02:47:51;19.30;99.90
7331;DHT22;3706;49.198;7.064;2022-07-23T02:50:52;19.40;99.90
7331;DHT22;3706;49.198;7.064;2022-07-23T02:53:32;19.40;99.90
7331;DHT22;3706;49.198;7.064;2022-07-23T02:56:04;19.30;99.90
7331;DHT22;3706;49.198;7.064;2022-07-23T02:59:08;19.20;99.90
7331;DHT22;3706;49.198;7.064;2022-07-23T03:01:48;19.20;99.90
7331;DHT22;3706;49.198;7.064;2022-07-23T03:07:23;19.30;99.90
7331;DHT22;3706;49.198;7.064;2022-07-23T03:10:28;19.20;99.90
7331;DHT22;3706;49.198;7.064;2022-07-23T03:13:22;19.40;99.90
7331;DHT22;3706;49.198;7.064;2022-07-23T03:16:10;19.40;99.90
7331;DHT22;3706;49.198;7.064;2022-07-23T03:19:07;19.30;99.90
7331;DHT22;3706;49.198;7.064;2022-07-23T03:25:40;18.90;99.90
7331;DHT22;3706;49.198;7.064;2022-07-23T03:28:22;18.80;99.90
7331;DHT22;3706;49.198;7.064;2022-07-23T03:31:29;18.70;99.90
7331;DHT22;3706;49.198;7.064;2022-07-23T03:34:21;18.80;99.90
7331;DHT22;3706;49.198;7.064;2022-07-23T03:37:11;18.70;99.90
7331;DHT22;3706;49.198;7.064;2022-07-23T03:40:20;18.70;99.90
7331;DHT22;3706;49.198;7.064;2022-07-23T03:43:09;18.60;99.90
7331;DHT22;3706;49.198;7.064;2022-07-23T03:46:05;18.50;99.90
7331;DHT22;3706;49.198;7.064;2022-07-23T03:48:55;18.40;99.90
7331;DHT22;3706;49.198;7.064;2022-07-23T03:51:46;18.40;99.90
7331;DHT22;3706;49.198;7.064;2022-07-23T03:54:41;18.50;99.90
7331;DHT22;3706;49.198;7.064;2022-07-23T03:57:17;18.70;99.90
7331;DHT22;3706;49.198;7.064;2022-07-23T04:00:05;18.80;99.90
7331;DHT22;3706;49.198;7.064;2022-07-23T04:02:43;19.00;99.90
7331;DHT22;3706;49.198;7.064;2022-07-23T04:05:21;19.00;99.90
7331;DHT22;3706;49.198;7.064;2022-07-23T04:08:18;19.10;99.90
7331;DHT22;3706;49.198;7.064;2022-07-23T04:13:58;19.10;99.90
7331;DHT22;3706;49.198;7.064;2022-07-23T04:16:39;19.20;99.90
7331;DHT22;3706;49.198;7.064;2022-07-23T04:19:45;19.30;99.90
7331;DHT22;3706;49.198;7.064;2022-07-23T04:22:42;19.50;99.90
7331;DHT22;3706;49.198;7.064;2022-07-23T04:29:14;19.50;99.90
7331;DHT22;3706;49.198;7.064;2022-07-23T04:32:04;19.40;99.90
7331;DHT22;3706;49.198;7.064;2022-07-23T04:35:05;19.40;99.90
7331;DHT22;3706;49.198;7.064;2022-07-23T04:38:13;19.30;99.90
7331;DHT22;3706;49.198;7.064;2022-07-23T04:41:08;19.30;99.90
7331;DHT22;3706;49.198;7.064;2022-07-23T04:44:21;19.30;99.90
7331;DHT22;3706;49.198;7.064;2022-07-23T04:47:20;19.30;99.90
7331;DHT22;3706;49.198;7.064;2022-07-23T04:50:19;19.30;99.90
7331;DHT22;3706;49.198;7.064;2022-07-23T04:55:48;19.40;99.90
7331;DHT22;3706;49.198;7.064;2022-07-23T04:58:32;19.40;99.90
7331;DHT22;3706;49.198;7.064;2022-07-23T05:01:34;19.30;99.90
7331;DHT22;3706;49.198;7.064;2022-07-23T05:06:29;19.20;99.90
7331;DHT22;3706;49.198;7.064;2022-07-23T05:10:29;19.30;99.90
7331;DHT22;3706;49.198;7.064;2022-07-23T05:14:08;19.40;99.90
7331;DHT22;3706;49.198;7.064;2022-07-23T05:17:12;19.30;99.90
7331;DHT22;3706;49.198;7.064;2022-07-23T05:20:26;19.40;99.90
7331;DHT22;3706;49.198;7.064;2022-07-23T05:23:11;19.50;99.90
7331;DHT22;3706;49.198;7.064;2022-07-23T05:25:49;19.60;99.90
7331;DHT22;3706;49.198;7.064;2022-07-23T05:28:30;19.80;99.90
7331;DHT22;3706;49.198;7.064;2022-07-23T05:30:57;19.90;99.90
7331;DHT22;3706;49.198;7.064;2022-07-23T05:33:26;20.00;99.90
7331;DHT22;3706;49.198;7.064;2022-07-23T05:35:53;20.20;99.90
7331;DHT22;3706;49.198;7.064;2022-07-23T05:38:20;20.40;99.90
7331;DHT22;3706;49.198;7.064;2022-07-23T05:40:47;20.60;99.90
7331;DHT22;3706;49.198;7.064;2022-07-23T05:43:14;20.90;99.90
7331;DHT22;3706;49.198;7.064;2022-07-23T05:45:41;21.10;99.90
7331;DHT22;3706;49.198;7.064;2022-07-23T05:48:08;21.20;99.90
7331;DHT22;3706;49.198;7.064;2022-07-23T05:50:36;21.40;99.90
7331;DHT22;3706;49.198;7.064;2022-07-23T05:53:04;21.50;99.90
7331;DHT22;3706;49.198;7.064;2022-07-23T05:55:31;21.70;99.90
7331;DHT22;3706;49.198;7.064;2022-07-23T05:57:58;21.90;99.90
7331;DHT22;3706;49.198;7.064;2022-07-23T06:00:26;22.00;99.90
7331;DHT22;3706;49.198;7.064;2022-07-23T06:02:54;22.30;99.90
7331;DHT22;3706;49.198;7.064;2022-07-23T06:05:21;22.70;99.90
7331;DHT22;3706;49.198;7.064;2022-07-23T06:07:49;23.00;99.90
7331;DHT22;3706;49.198;7.064;2022-07-23T06:10:16;23.20;99.90
7331;DHT22;3706;49.198;7.064;2022-07-23T06:12:43;23.30;99.90
7331;DHT22;3706;49.198;7.064;2022-07-23T06:15:11;23.50;99.90
7331;DHT22;3706;49.198;7.064;2022-07-23T06:17:38;23.80;99.90
7331;DHT22;3706;49.198;7.064;2022-07-23T06:20:06;24.10;99.90
7331;DHT22;3706;49.198;7.064;2022-07-23T06:22:34;24.30;99.90
7331;DHT22;3706;49.198;7.064;2022-07-23T06:25:03;24.70;99.90
7331;DHT22;3706;49.198;7.064;2022-07-23T06:27:30;25.30;99.90
7331;DHT22;3706;49.198;7.064;2022-07-23T06:29:57;25.90;99.90
7331;DHT22;3706;49.198;7.064;2022-07-23T06:32:24;26.50;99.90
7331;DHT22;3706;49.198;7.064;2022-07-23T06:34:51;27.10;99.90
7331;DHT22;3706;49.198;7.064;2022-07-23T06:37:18;27.50;99.90
7331;DHT22;3706;49.198;7.064;2022-07-23T06:39:45;27.80;99.90
7331;DHT22;3706;49.198;7.064;2022-07-23T06:42:13;28.20;99.90
7331;DHT22;3706;49.198;7.064;2022-07-23T06:44:40;28.80;99.90
7331;DHT22;3706;49.198;7.064;2022-07-23T06:47:07;29.50;99.90
7331;DHT22;3706;49.198;7.064;2022-07-23T06:49:34;29.80;99.90
7331;DHT22;3706;49.198;7.064;2022-07-23T06:52:01;29.70;99.00
7331;DHT22;3706;49.198;7.064;2022-07-23T06:54:28;29.30;98.80
7331;DHT22;3706;49.198;7.064;2022-07-23T06:56:55;29.00;99.20
7331;DHT22;3706;49.198;7.064;2022-07-23T06:59:23;28.90;99.60
7331;DHT22;3706;49.198;7.064;2022-07-23T07:01:50;29.30;98.80
7331;DHT22;3706;49.198;7.064;2022-07-23T07:04:17;29.70;97.30
7331;DHT22;3706;49.198;7.064;2022-07-23T07:06:44;30.20;96.30
7331;DHT22;3706;49.198;7.064;2022-07-23T07:09:11;31.00;95.30
7331;DHT22;3706;49.198;7.064;2022-07-23T07:11:38;31.90;92.60
7331;DHT22;3706;49.198;7.064;2022-07-23T07:14:05;32.70;90.20
7331;DHT22;3706;49.198;7.064;2022-07-23T07:16:33;33.00;85.90
7331;DHT22;3706;49.198;7.064;2022-07-23T07:19:00;32.70;85.30
7331;DHT22;3706;49.198;7.064;2022-07-23T07:21:28;31.80;86.00
7331;DHT22;3706;49.198;7.064;2022-07-23T07:23:55;30.80;89.80
7331;DHT22;3706;49.198;7.064;2022-07-23T07:26:22;30.40;90.70
7331;DHT22;3706;49.198;7.064;2022-07-23T07:28:49;30.60;90.60
7331;DHT22;3706;49.198;7.064;2022-07-23T07:31:16;31.00;90.00
7331;DHT22;3706;49.198;7.064;2022-07-23T07:33:44;31.40;87.40
7331;DHT22;3706;49.198;7.064;2022-07-23T07:36:11;31.40;87.50
7331;DHT22;3706;49.198;7.064;2022-07-23T07:38:38;31.20;86.40
7331;DHT22;3706;49.198;7.064;2022-07-23T07:41:05;30.90;86.40
7331;DHT22;3706;49.198;7.064;2022-07-23T07:43:33;30.80;86.80
7331;DHT22;3706;49.198;7.064;2022-07-23T07:46:00;31.00;86.10
7331;DHT22;3706;49.198;7.064;2022-07-23T07:48:27;31.30;86.30
7331;DHT22;3706;49.198;7.064;2022-07-23T07:50:55;32.10;82.40
7331;DHT22;3706;49.198;7.064;2022-07-23T07:53:22;32.30;81.40
7331;DHT22;3706;49.198;7.064;2022-07-23T07:55:49;32.50;80.80
7331;DHT22;3706;49.198;7.064;2022-07-23T07:58:16;32.80;79.30
7331;DHT22;3706;49.198;7.064;2022-07-23T08:00:43;33.20;77.80
7331;DHT22;3706;49.198;7.064;2022-07-23T08:03:10;34.10;76.20
7331;DHT22;3706;49.198;7.064;2022-07-23T08:05:37;35.10;72.60
7331;DHT22;3706;49.198;7.064;2022-07-23T08:08:05;36.00;70.40
7331;DHT22;3706;49.198;7.064;2022-07-23T08:10:35;36.60;67.90
7331;DHT22;3706;49.198;7.064;2022-07-23T08:13:02;37.10;66.50
7331;DHT22;3706;49.198;7.064;2022-07-23T08:15:30;37.80;64.80
7331;DHT22;3706;49.198;7.064;2022-07-23T08:17:57;38.10;63.50
7331;DHT22;3706;49.198;7.064;2022-07-23T08:20:25;38.20;61.90
7331;DHT22;3706;49.198;7.064;2022-07-23T08:22:54;38.40;61.50
7331;DHT22;3706;49.198;7.064;2022-07-23T08:25:24;38.40;60.90
7331;DHT22;3706;49.198;7.064;2022-07-23T08:27:51;38.50;60.70
7331;DHT22;3706;49.198;7.064;2022-07-23T08:30:19;38.90;58.40
7331;DHT22;3706;49.198;7.064;2022-07-23T08:32:54;39.20;58.80
7331;DHT22;3706;49.198;7.064;2022-07-23T08:35:25;39.10;57.90
7331;DHT22;3706;49.198;7.064;2022-07-23T08:37:53;38.70;58.80
7331;DHT22;3706;49.198;7.064;2022-07-23T08:40:22;38.70;58.60
7331;DHT22;3706;49.198;7.064;2022-07-23T08:42:50;38.80;57.80
7331;DHT22;3706;49.198;7.064;2022-07-23T08:45:20;38.80;57.80
7331;DHT22;3706;49.198;7.064;2022-07-23T08:47:49;38.10;59.30
7331;DHT22;3706;49.198;7.064;2022-07-23T08:50:16;37.70;59.20
7331;DHT22;3706;49.198;7.064;2022-07-23T08:52:44;38.00;59.00
7331;DHT22;3706;49.198;7.064;2022-07-23T08:55:11;38.00;59.20
7331;DHT22;3706;49.198;7.064;2022-07-23T08:57:40;38.10;58.40
7331;DHT22;3706;49.198;7.064;2022-07-23T09:00:08;38.00;58.90
7331;DHT22;3706;49.198;7.064;2022-07-23T09:02:39;38.50;57.20
7331;DHT22;3706;49.198;7.064;2022-07-23T09:05:07;39.00;56.50
7331;DHT22;3706;49.198;7.064;2022-07-23T09:07:34;39.50;55.30
7331;DHT22;3706;49.198;7.064;2022-07-23T09:10:06;39.70;54.60
7331;DHT22;3706;49.198;7.064;2022-07-23T09:12:34;39.30;54.60
7331;DHT22;3706;49.198;7.064;2022-07-23T09:15:07;38.40;55.90
7331;DHT22;3706;49.198;7.064;2022-07-23T09:17:40;38.00;57.00
7331;DHT22;3706;49.198;7.064;2022-07-23T09:20:09;37.60;58.00
7331;DHT22;3706;49.198;7.064;2022-07-23T09:22:36;37.70;57.70
7331;DHT22;3706;49.198;7.064;2022-07-23T09:25:05;38.20;56.30
7331;DHT22;3706;49.198;7.064;2022-07-23T09:27:47;38.40;55.30
7331;DHT22;3706;49.198;7.064;2022-07-23T09:30:16;37.60;55.70
7331;DHT22;3706;49.198;7.064;2022-07-23T09:32:43;36.50;55.90
7331;DHT22;3706;49.198;7.064;2022-07-23T09:35:10;35.60;58.70
7331;DHT22;3706;49.198;7.064;2022-07-23T09:37:37;34.70;59.50
7331;DHT22;3706;49.198;7.064;2022-07-23T09:40:07;34.00;61.20
7331;DHT22;3706;49.198;7.064;2022-07-23T09:42:35;33.50;62.40
7331;DHT22;3706;49.198;7.064;2022-07-23T09:45:02;34.20;60.20
7331;DHT22;3706;49.198;7.064;2022-07-23T09:47:32;34.90;58.80
7331;DHT22;3706;49.198;7.064;2022-07-23T09:50:01;35.20;58.40
7331;DHT22;3706;49.198;7.064;2022-07-23T09:52:33;35.10;58.80
7331;DHT22;3706;49.198;7.064;2022-07-23T09:55:02;34.80;58.80
7331;DHT22;3706;49.198;7.064;2022-07-23T09:57:29;34.30;59.80
7331;DHT22;3706;49.198;7.064;2022-07-23T10:00:02;33.70;61.70
7331;DHT22;3706;49.198;7.064;2022-07-23T10:02:32;33.00;62.60
7331;DHT22;3706;49.198;7.064;2022-07-23T10:05:01;32.30;63.40
7331;DHT22;3706;49.198;7.064;2022-07-23T10:07:32;31.70;65.00
7331;DHT22;3706;49.198;7.064;2022-07-23T10:10:02;31.40;65.50
7331;DHT22;3706;49.198;7.064;2022-07-23T10:12:29;31.20;65.90
7331;DHT22;3706;49.198;7.064;2022-07-23T10:15:16;31.30;66.60
7331;DHT22;3706;49.198;7.064;2022-07-23T10:17:44;32.40;65.40
7331;DHT22;3706;49.198;7.064;2022-07-23T10:20:11;33.40;63.10
7331;DHT22;3706;49.198;7.064;2022-07-23T10:22:40;34.40;60.30
7331;DHT22;3706;49.198;7.064;2022-07-23T10:25:14;35.40;58.20
7331;DHT22;3706;49.198;7.064;2022-07-23T10:30:52;37.40;55.00
7331;DHT22;3706;49.198;7.064;2022-07-23T10:33:32;38.80;52.40
7331;DHT22;3706;49.198;7.064;2022-07-23T10:36:09;39.50;51.40
7331;DHT22;3706;49.198;7.064;2022-07-23T10:38:48;39.90;50.40
7331;DHT22;3706;49.198;7.064;2022-07-23T10:41:30;40.50;49.80
7331;DHT22;3706;49.198;7.064;2022-07-23T10:44:06;40.90;47.40
7331;DHT22;3706;49.198;7.064;2022-07-23T10:46:33;41.10;47.00
7331;DHT22;3706;49.198;7.064;2022-07-23T10:49:27;40.60;47.00
7331;DHT22;3706;49.198;7.064;2022-07-23T10:52:17;39.10;49.30
7331;DHT22;3706;49.198;7.064;2022-07-23T10:54:45;38.10;51.00
7331;DHT22;3706;49.198;7.064;2022-07-23T10:57:14;37.80;51.90
7331;DHT22;3706;49.198;7.064;2022-07-23T11:00:11;37.30;52.00
7331;DHT22;3706;49.198;7.064;2022-07-23T11:02:40;36.70;53.50
7331;DHT22;3706;49.198;7.064;2022-07-23T11:05:10;36.20;54.40
7331;DHT22;3706;49.198;7.064;2022-07-23T11:10:53;34.90;56.60
7331;DHT22;3706;49.198;7.064;2022-07-23T11:13:28;34.50;57.40
7331;DHT22;3706;49.198;7.064;2022-07-23T11:16:16;34.90;57.20
7331;DHT22;3706;49.198;7.064;2022-07-23T11:19:06;35.80;55.90
7331;DHT22;3706;49.198;7.064;2022-07-23T11:21:51;36.90;54.60
7331;DHT22;3706;49.198;7.064;2022-07-23T11:24:23;37.50;53.00
7331;DHT22;3706;49.198;7.064;2022-07-23T11:29:55;38.10;52.10
7331;DHT22;3706;49.198;7.064;2022-07-23T11:32:33;39.00;50.50
7331;DHT22;3706;49.198;7.064;2022-07-23T11:35:03;39.40;49.60
7331;DHT22;3706;49.198;7.064;2022-07-23T11:37:46;38.90;49.20
7331;DHT22;3706;49.198;7.064;2022-07-23T11:40:15;37.60;52.00
7331;DHT22;3706;49.198;7.064;2022-07-23T11:42:52;37.00;52.30
7331;DHT22;3706;49.198;7.064;2022-07-23T11:45:20;36.90;52.10
7331;DHT22;3706;49.198;7.064;2022-07-23T11:47:47;36.50;52.70
7331;DHT22;3706;49.198;7.064;2022-07-23T11:50:15;36.00;54.20
7331;DHT22;3706;49.198;7.064;2022-07-23T11:52:42;35.60;54.70
7331;DHT22;3706;49.198;7.064;2022-07-23T11:55:11;35.60;55.30
7331;DHT22;3706;49.198;7.064;2022-07-23T11:57:41;36.10;54.20
7331;DHT22;3706;49.198;7.064;2022-07-23T12:00:10;36.50;52.60
7331;DHT22;3706;49.198;7.064;2022-07-23T12:02:39;36.40;53.50
7331;DHT22;3706;49.198;7.064;2022-07-23T12:05:08;35.90;54.00
7331;DHT22;3706;49.198;7.064;2022-07-23T12:07:39;35.10;54.90
7331;DHT22;3706;49.198;7.064;2022-07-23T12:10:13;35.00;56.00
7331;DHT22;3706;49.198;7.064;2022-07-23T12:12:42;35.40;54.90
7331;DHT22;3706;49.198;7.064;2022-07-23T12:15:10;35.60;54.40
7331;DHT22;3706;49.198;7.064;2022-07-23T12:17:39;35.50;54.20
7331;DHT22;3706;49.198;7.064;2022-07-23T12:20:09;35.90;54.60
7331;DHT22;3706;49.198;7.064;2022-07-23T12:22:39;36.00;53.40
7331;DHT22;3706;49.198;7.064;2022-07-23T12:25:09;36.50;52.70
7331;DHT22;3706;49.198;7.064;2022-07-23T12:27:38;36.80;52.00
7331;DHT22;3706;49.198;7.064;2022-07-23T12:30:22;36.90;50.60
7331;DHT22;3706;49.198;7.064;2022-07-23T12:32:51;36.70;50.20
7331;DHT22;3706;49.198;7.064;2022-07-23T12:35:19;36.60;50.60
7331;DHT22;3706;49.198;7.064;2022-07-23T12:37:48;36.40;50.90
7331;DHT22;3706;49.198;7.064;2022-07-23T12:40:23;36.10;51.90
7331;DHT22;3706;49.198;7.064;2022-07-23T12:42:53;36.00;52.00
7331;DHT22;3706;49.198;7.064;2022-07-23T12:45:20;36.30;52.00
7331;DHT22;3706;49.198;7.064;2022-07-23T12:47:56;36.50;51.00
7331;DHT22;3706;49.198;7.064;2022-07-23T12:50:43;36.70;51.40
7331;DHT22;3706;49.198;7.064;2022-07-23T12:53:13;36.40;51.10
7331;DHT22;3706;49.198;7.064;2022-07-23T12:55:44;35.50;52.10
7331;DHT22;3706;49.198;7.064;2022-07-23T12:58:14;35.00;52.90
7331;DHT22;3706;49.198;7.064;2022-07-23T13:00:57;34.90;53.80
7331;DHT22;3706;49.198;7.064;2022-07-23T13:03:26;34.90;53.50
7331;DHT22;3706;49.198;7.064;2022-07-23T13:05:53;34.70;54.20
7331;DHT22;3706;49.198;7.064;2022-07-23T13:08:21;34.60;54.50
7331;DHT22;3706;49.198;7.064;2022-07-23T13:10:48;34.60;54.00
7331;DHT22;3706;49.198;7.064;2022-07-23T13:13:20;34.30;54.60
7331;DHT22;3706;49.198;7.064;2022-07-23T13:15:47;33.90;55.70
7331;DHT22;3706;49.198;7.064;2022-07-23T13:18:14;33.40;56.00
7331;DHT22;3706;49.198;7.064;2022-07-23T13:20:42;33.00;56.30
7331;DHT22;3706;49.198;7.064;2022-07-23T13:23:09;33.00;56.80
7331;DHT22;3706;49.198;7.064;2022-07-23T13:25:36;33.40;57.40
7331;DHT22;3706;49.198;7.064;2022-07-23T13:28:04;34.00;55.60
7331;DHT22;3706;49.198;7.064;2022-07-23T13:30:32;34.00;55.10
7331;DHT22;3706;49.198;7.064;2022-07-23T13:33:00;33.80;55.20
7331;DHT22;3706;49.198;7.064;2022-07-23T13:35:27;33.20;55.90
7331;DHT22;3706;49.198;7.064;2022-07-23T13:37:54;32.60;57.00
7331;DHT22;3706;49.198;7.064;2022-07-23T13:40:21;32.50;57.60
7331;DHT22;3706;49.198;7.064;2022-07-23T13:42:49;32.90;57.20
7331;DHT22;3706;49.198;7.064;2022-07-23T13:45:16;33.40;55.80
7331;DHT22;3706;49.198;7.064;2022-07-23T13:47:44;33.60;54.90
7331;DHT22;3706;49.198;7.064;2022-07-23T13:50:11;33.30;54.80
7331;DHT22;3706;49.198;7.064;2022-07-23T13:52:41;33.10;55.80
7331;DHT22;3706;49.198;7.064;2022-07-23T13:55:08;33.00;55.80
7331;DHT22;3706;49.198;7.064;2022-07-23T13:57:36;33.20;56.30
7331;DHT22;3706;49.198;7.064;2022-07-23T14:00:04;33.30;56.00
7331;DHT22;3706;49.198;7.064;2022-07-23T14:02:32;33.40;55.20
7331;DHT22;3706;49.198;7.064;2022-07-23T14:05:01;33.10;56.00
7331;DHT22;3706;49.198;7.064;2022-07-23T14:07:28;32.80;56.50
7331;DHT22;3706;49.198;7.064;2022-07-23T14:09:55;32.40;57.20
7331;DHT22;3706;49.198;7.064;2022-07-23T14:12:22;32.20;57.30
7331;DHT22;3706;49.198;7.064;2022-07-23T14:14:49;32.20;57.80
7331;DHT22;3706;49.198;7.064;2022-07-23T14:17:16;32.30;58.20
7331;DHT22;3706;49.198;7.064;2022-07-23T14:19:43;32.30;57.00
7331;DHT22;3706;49.198;7.064;2022-07-23T14:22:14;32.20;57.30
7331;DHT22;3706;49.198;7.064;2022-07-23T14:24:41;32.30;56.90
7331;DHT22;3706;49.198;7.064;2022-07-23T14:27:09;32.30;57.30
7331;DHT22;3706;49.198;7.064;2022-07-23T14:29:36;32.30;57.30
7331;DHT22;3706;49.198;7.064;2022-07-23T14:32:04;32.40;57.00
7331;DHT22;3706;49.198;7.064;2022-07-23T14:34:32;32.50;56.90
7331;DHT22;3706;49.198;7.064;2022-07-23T14:36:59;32.50;57.00
7331;DHT22;3706;49.198;7.064;2022-07-23T14:39:27;33.00;56.70
7331;DHT22;3706;49.198;7.064;2022-07-23T14:41:55;33.10;55.30
7331;DHT22;3706;49.198;7.064;2022-07-23T14:44:22;33.10;55.40
7331;DHT22;3706;49.198;7.064;2022-07-23T14:46:49;32.90;54.50
7331;DHT22;3706;49.198;7.064;2022-07-23T14:49:16;32.50;54.00
7331;DHT22;3706;49.198;7.064;2022-07-23T14:51:43;32.50;55.10
7331;DHT22;3706;49.198;7.064;2022-07-23T14:54:10;32.60;55.50
7331;DHT22;3706;49.198;7.064;2022-07-23T14:56:39;32.50;56.00
7331;DHT22;3706;49.198;7.064;2022-07-23T14:59:06;32.50;55.50
7331;DHT22;3706;49.198;7.064;2022-07-23T15:01:34;32.60;55.60
7331;DHT22;3706;49.198;7.064;2022-07-23T15:04:01;32.70;55.50
7331;DHT22;3706;49.198;7.064;2022-07-23T15:06:29;32.50;55.20
7331;DHT22;3706;49.198;7.064;2022-07-23T15:08:56;32.30;55.90
7331;DHT22;3706;49.198;7.064;2022-07-23T15:11:23;32.30;56.30
7331;DHT22;3706;49.198;7.064;2022-07-23T15:20:37;31.60;57.20
7331;DHT22;3706;49.198;7.064;2022-07-23T15:42:31;30.70;59.20
7331;DHT22;3706;49.198;7.064;2022-07-23T15:44:58;30.70;59.50
7331;DHT22;3706;49.198;7.064;2022-07-23T15:47:26;30.60;59.80
7331;DHT22;3706;49.198;7.064;2022-07-23T15:49:53;30.60;59.60
7331;DHT22;3706;49.198;7.064;2022-07-23T15:52:20;30.50;59.10
7331;DHT22;3706;49.198;7.064;2022-07-23T15:54:47;30.40;59.40
7331;DHT22;3706;49.198;7.064;2022-07-23T15:57:15;30.50;59.60
7331;DHT22;3706;49.198;7.064;2022-07-23T15:59:42;30.60;60.00
7331;DHT22;3706;49.198;7.064;2022-07-23T16:02:09;30.80;59.00
7331;DHT22;3706;49.198;7.064;2022-07-23T16:04:37;30.90;58.90
7331;DHT22;3706;49.198;7.064;2022-07-23T16:07:04;30.90;58.60
7331;DHT22;3706;49.198;7.064;2022-07-23T16:09:31;30.80;59.70
7331;DHT22;3706;49.198;7.064;2022-07-23T16:11:58;30.70;59.40
7331;DHT22;3706;49.198;7.064;2022-07-23T16:14:25;30.60;59.20
7331;DHT22;3706;49.198;7.064;2022-07-23T16:16:52;30.60;59.20
7331;DHT22;3706;49.198;7.064;2022-07-23T16:19:18;30.40;59.80
7331;DHT22;3706;49.198;7.064;2022-07-23T16:21:47;30.40;60.30
7331;DHT22;3706;49.198;7.064;2022-07-23T16:24:14;30.50;60.80
7331;DHT22;3706;49.198;7.064;2022-07-23T16:26:41;30.60;60.30
7331;DHT22;3706;49.198;7.064;2022-07-23T16:29:08;30.50;59.60
7331;DHT22;3706;49.198;7.064;2022-07-23T16:31:35;30.40;60.40
7331;DHT22;3706;49.198;7.064;2022-07-23T16:34:02;30.30;60.50
7331;DHT22;3706;49.198;7.064;2022-07-23T16:36:29;30.30;60.60
7331;DHT22;3706;49.198;7.064;2022-07-23T16:38:58;30.20;60.60
7331;DHT22;3706;49.198;7.064;2022-07-23T16:41:24;30.10;60.30
7331;DHT22;3706;49.198;7.064;2022-07-23T16:43:51;30.00;61.20
7331;DHT22;3706;49.198;7.064;2022-07-23T16:46:18;30.10;61.30
7331;DHT22;3706;49.198;7.064;2022-07-23T16:48:46;30.30;61.00
7331;DHT22;3706;49.198;7.064;2022-07-23T16:51:13;30.40;60.40
7331;DHT22;3706;49.198;7.064;2022-07-23T16:53:40;30.40;59.70
7331;DHT22;3706;49.198;7.064;2022-07-23T16:56:09;30.40;60.00
7331;DHT22;3706;49.198;7.064;2022-07-23T16:58:36;30.30;60.10
7331;DHT22;3706;49.198;7.064;2022-07-23T17:01:06;30.10;59.60
7331;DHT22;3706;49.198;7.064;2022-07-23T17:03:33;30.00;60.70
7331;DHT22;3706;49.198;7.064;2022-07-23T17:06:00;29.90;61.40
7331;DHT22;3706;49.198;7.064;2022-07-23T17:08:27;29.90;61.80
7331;DHT22;3706;49.198;7.064;2022-07-23T17:10:55;29.90;61.00
7331;DHT22;3706;49.198;7.064;2022-07-23T17:13:23;29.80;61.10
7331;DHT22;3706;49.198;7.064;2022-07-23T17:15:52;29.70;61.20
7331;DHT22;3706;49.198;7.064;2022-07-23T17:18:20;29.60;61.60
7331;DHT22;3706;49.198;7.064;2022-07-23T17:20:47;29.70;62.40
7331;DHT22;3706;49.198;7.064;2022-07-23T17:23:14;29.80;62.80
7331;DHT22;3706;49.198;7.064;2022-07-23T17:25:40;29.90;62.20
7331;DHT22;3706;49.198;7.064;2022-07-23T17:28:07;29.90;61.80
7331;DHT22;3706;49.198;7.064;2022-07-23T17:30:36;29.80;61.70
7331;DHT22;3706;49.198;7.064;2022-07-23T17:33:03;29.70;62.10
7331;DHT22;3706;49.198;7.064;2022-07-23T17:35:30;29.50;62.60
7331;DHT22;3706;49.198;7.064;2022-07-23T17:37:57;29.40;62.90
7331;DHT22;3706;49.198;7.064;2022-07-23T17:40:24;29.30;63.50
7331;DHT22;3706;49.198;7.064;2022-07-23T17:42:51;29.30;62.90
7331;DHT22;3706;49.198;7.064;2022-07-23T17:45:19;29.10;62.80
7331;DHT22;3706;49.198;7.064;2022-07-23T17:47:47;29.00;62.80
7331;DHT22;3706;49.198;7.064;2022-07-23T17:50:15;28.90;63.50
7331;DHT22;3706;49.198;7.064;2022-07-23T17:52:44;28.70;63.50
7331;DHT22;3706;49.198;7.064;2022-07-23T17:55:12;28.50;64.10
7331;DHT22;3706;49.198;7.064;2022-07-23T17:57:39;28.30;64.90
7331;DHT22;3706;49.198;7.064;2022-07-23T18:00:07;28.10;66.20
7331;DHT22;3706;49.198;7.064;2022-07-23T18:02:35;27.90;66.80
7331;DHT22;3706;49.198;7.064;2022-07-23T18:05:04;27.80;67.20
7331;DHT22;3706;49.198;7.064;2022-07-23T18:07:31;27.80;67.20
7331;DHT22;3706;49.198;7.064;2022-07-23T18:09:58;27.70;66.70
7331;DHT22;3706;49.198;7.064;2022-07-23T18:12:25;27.60;68.10